Time;durP1;ratioP1;P1;durP2;ratioP2;P2;SDS_P1;SDS_P2;PMS_P1;PMS_P2;Temp;Humidity;BMP_temperature;BMP_pressure;BME280_temperature;BME280_humidity;BME280_pressure;Samples;Min_cycle;Max_cycle;Signal;HPM_P1;HPM_P2
2022/01/14 00:00:55;;;;;;;0.60;0.60;;;;;;;;;;5030708;28;20180;-65
2022/01/14 00:03:21;;;;;;;0.60;0.60;;;;;;;;;;5030493;28;20213;-65
2022/01/14 00:05:47;;;;;;;0.70;0.70;;;;;;;;;;5031029;28;20936;-65
2022/01/14 00:08:13;;;;;;;0.70;0.70;;;;;;;;;;5030918;28;20176;-65
2022/01/14 00:10:41;;;;;;;0.70;0.70;;;;;;;;;;5030882;28;20424;-66
2022/01/14 00:13:17;;;;;;;0.60;0.60;;;;;;;;;;5030575;28;20617;-65
2022/01/14 00:15:43;;;;;;;0.57;0.57;;;;;;;;;;5030683;28;20187;-65
2022/01/14 00:18:08;;;;;;;0.60;0.60;;;;;;;;;;5030984;28;20188;-65
2022/01/14 00:20:34;;;;;;;0.60;0.60;;;;;;;;;;5035203;28;20419;-64
2022/01/14 00:23:00;;;;;;;0.70;0.70;;;;;;;;;;5043323;22;20500;-63
2022/01/14 00:33:29;;;;;;;0.60;0.60;;;;;;;;;;5032049;28;20215;-62
2022/01/14 00:35:55;;;;;;;0.60;0.60;;;;;;;;;;5034844;28;20177;-62
2022/01/14 00:38:20;;;;;;;0.57;0.57;;;;;;;;;;5034625;28;20407;-60
2022/01/14 00:40:47;;;;;;;0.50;0.50;;;;;;;;;;5034682;28;20180;-62
2022/01/14 00:43:15;;;;;;;0.50;0.50;;;;;;;;;;5034382;28;20482;-62
2022/01/14 00:45:41;;;;;;;0.60;0.60;;;;;;;;;;5034544;28;20172;-62
2022/01/14 00:48:07;;;;;;;0.60;0.60;;;;;;;;;;5034471;28;20204;-62
2022/01/14 00:50:34;;;;;;;0.60;0.60;;;;;;;;;;5034506;28;20197;-62
2022/01/14 00:53:00;;;;;;;0.70;0.70;;;;;;;;;;5034062;28;20563;-63
2022/01/14 00:55:29;;;;;;;0.60;0.60;;;;;;;;;;5034370;28;20211;-62
2022/01/14 01:00:25;;;;;;;0.50;0.50;;;;;;;;;;5034416;28;20176;-61
2022/01/14 01:02:51;;;;;;;0.60;0.60;;;;;;;;;;5033936;28;20242;-63
2022/01/14 01:05:18;;;;;;;0.60;0.60;;;;;;;;;;5034143;28;20204;-63
2022/01/14 01:07:47;;;;;;;0.60;0.60;;;;;;;;;;5034186;28;20215;-63
2022/01/14 01:10:13;;;;;;;0.60;0.60;;;;;;;;;;5034147;28;20524;-63
2022/01/14 01:13:07;;;;;;;0.60;0.60;;;;;;;;;;5033803;28;20197;-62
2022/01/14 01:15:28;;;;;;;0.60;0.60;;;;;;;;;;5033235;28;20560;-63
2022/01/14 01:17:54;;;;;;;0.57;0.57;;;;;;;;;;5034359;28;20172;-62
2022/01/14 01:20:21;;;;;;;0.60;0.60;;;;;;;;;;5016133;28;20419;-62
2022/01/14 01:22:48;;;;;;;0.60;0.60;;;;;;;;;;5033461;28;20901;-62
2022/01/14 01:25:16;;;;;;;0.60;0.60;;;;;;;;;;5033856;28;20201;-62
2022/01/14 01:27:44;;;;;;;0.60;0.60;;;;;;;;;;5033854;28;20599;-62
2022/01/14 01:30:15;;;;;;;0.60;0.60;;;;;;;;;;5015267;28;20173;-63
2022/01/14 01:32:41;;;;;;;0.60;0.60;;;;;;;;;;5033483;28;20568;-63
2022/01/14 01:35:07;;;;;;;0.60;0.60;;;;;;;;;;5033645;28;20168;-63
2022/01/14 01:37:33;;;;;;;0.60;0.60;;;;;;;;;;5015827;28;20646;-65
2022/01/14 01:39:59;;;;;;;0.50;0.50;;;;;;;;;;5033589;28;20212;-62
2022/01/14 01:42:28;;;;;;;0.70;0.70;;;;;;;;;;5033308;28;20600;-63
2022/01/14 01:44:55;;;;;;;0.50;0.50;;;;;;;;;;5033397;28;20408;-61
2022/01/14 01:47:22;;;;;;;0.60;0.60;;;;;;;;;;5033414;28;20172;-63
2022/01/14 01:49:49;;;;;;;0.60;0.60;;;;;;;;;;5033455;28;20672;-62
2022/01/14 01:52:15;;;;;;;0.60;0.60;;;;;;;;;;5033223;28;20197;-62
2022/01/14 01:54:41;;;;;;;0.60;0.60;;;;;;;;;;5033278;28;20518;-63
2022/01/14 01:57:07;;;;;;;0.57;0.57;;;;;;;;;;5033265;28;20435;-62
2022/01/14 01:59:33;;;;;;;0.70;0.70;;;;;;;;;;5033121;28;20180;-63
2022/01/14 02:01:59;;;;;;;0.70;0.70;;;;;;;;;;5033075;28;20270;-62
2022/01/14 02:04:26;;;;;;;0.60;0.60;;;;;;;;;;5033047;28;20787;-62
2022/01/14 02:06:53;;;;;;;0.70;0.70;;;;;;;;;;5033153;28;20177;-63
2022/01/14 02:09:19;;;;;;;0.50;0.50;;;;;;;;;;5033066;28;20164;-62
2022/01/14 02:11:46;;;;;;;0.60;0.60;;;;;;;;;;5032548;28;20678;-62
2022/01/14 02:19:30;;;;;;;0.70;0.70;;;;;;;;;;5032720;28;20196;-62
2022/01/14 02:22:13;;;;;;;0.70;0.70;;;;;;;;;;5032137;28;20482;-64
2022/01/14 02:27:06;;;;;;;0.60;0.60;;;;;;;;;;5033355;28;20200;-60
2022/01/14 02:29:32;;;;;;;0.65;0.65;;;;;;;;;;5032426;28;20184;-61
2022/01/14 02:31:58;;;;;;;0.60;0.60;;;;;;;;;;5032428;28;20200;-62
2022/01/14 02:34:24;;;;;;;0.60;0.60;;;;;;;;;;5031945;28;20432;-62
2022/01/14 02:36:50;;;;;;;0.60;0.60;;;;;;;;;;5032161;28;20412;-62
2022/01/14 02:39:17;;;;;;;0.60;0.60;;;;;;;;;;5032247;28;20195;-62
2022/01/14 02:41:43;;;;;;;0.70;0.70;;;;;;;;;;5031506;28;20466;-62
2022/01/14 02:44:11;;;;;;;0.65;0.65;;;;;;;;;;5030969;28;20200;-62
2022/01/14 02:46:42;;;;;;;0.60;0.60;;;;;;;;;;5031817;28;20674;-62
2022/01/14 02:49:08;;;;;;;0.60;0.60;;;;;;;;;;5032245;28;20176;-61
2022/01/14 02:51:34;;;;;;;0.60;0.60;;;;;;;;;;5032187;28;20171;-62
2022/01/14 02:54:15;;;;;;;0.63;0.63;;;;;;;;;;5031581;28;20613;-62
2022/01/14 02:56:46;;;;;;;0.70;0.70;;;;;;;;;;5031894;28;20168;-62
2022/01/14 02:59:13;;;;;;;0.60;0.60;;;;;;;;;;5031442;28;20181;-62
2022/01/14 03:01:39;;;;;;;0.70;0.70;;;;;;;;;;5013931;28;20200;-61
2022/01/14 03:04:06;;;;;;;0.60;0.60;;;;;;;;;;5031861;28;20231;-62
2022/01/14 03:06:32;;;;;;;0.70;0.70;;;;;;;;;;5031782;28;20208;-62
2022/01/14 03:08:58;;;;;;;0.60;0.60;;;;;;;;;;5031749;28;20683;-62
2022/01/14 03:11:35;;;;;;;0.60;0.60;;;;;;;;;;5031547;28;20450;-63
2022/01/14 03:14:02;;;;;;;0.60;0.60;;;;;;;;;;5031551;28;20259;-62
2022/01/14 03:16:29;;;;;;;0.60;0.60;;;;;;;;;;5031345;28;20184;-62
2022/01/14 03:19:05;;;;;;;0.60;0.60;;;;;;;;;;5031669;28;20180;-63
2022/01/14 03:21:36;;;;;;;0.60;0.60;;;;;;;;;;5031321;28;20231;-63
2022/01/14 03:24:14;;;;;;;0.60;0.60;;;;;;;;;;5031235;28;20173;-62
2022/01/14 03:26:40;;;;;;;0.70;0.70;;;;;;;;;;5031369;28;20579;-63
2022/01/14 03:29:06;;;;;;;0.60;0.60;;;;;;;;;;5019949;28;20226;-61
2022/01/14 03:31:32;;;;;;;0.50;0.50;;;;;;;;;;5013683;28;20427;-62
2022/01/14 03:33:58;;;;;;;0.70;0.70;;;;;;;;;;5031012;28;20422;-62
2022/01/14 03:36:24;;;;;;;0.60;0.60;;;;;;;;;;5031134;28;20410;-63
2022/01/14 03:38:50;;;;;;;0.60;0.60;;;;;;;;;;5031235;28;20843;-63
2022/01/14 03:41:16;;;;;;;0.50;0.50;;;;;;;;;;5031432;28;20203;-63
2022/01/14 03:43:42;;;;;;;0.60;0.60;;;;;;;;;;5030772;28;20546;-62
2022/01/14 03:46:08;;;;;;;0.60;0.60;;;;;;;;;;5016015;28;20918;-62
2022/01/14 03:48:34;;;;;;;0.50;0.50;;;;;;;;;;5031142;28;20183;-61
2022/01/14 03:51:00;;;;;;;0.60;0.60;;;;;;;;;;5031085;28;20415;-63
2022/01/14 03:53:26;;;;;;;0.70;0.70;;;;;;;;;;5030371;28;20222;-64
2022/01/14 03:55:52;;;;;;;0.70;0.70;;;;;;;;;;5030813;28;20191;-63
2022/01/14 03:58:18;;;;;;;0.60;0.60;;;;;;;;;;5031026;28;20181;-62
2022/01/14 04:00:44;;;;;;;0.60;0.60;;;;;;;;;;5030929;28;20423;-63
2022/01/14 04:03:10;;;;;;;0.60;0.60;;;;;;;;;;5012996;28;20459;-63
2022/01/14 04:05:36;;;;;;;0.57;0.57;;;;;;;;;;5030912;28;20658;-63
2022/01/14 04:08:03;;;;;;;0.60;0.60;;;;;;;;;;5031012;28;20252;-63
2022/01/14 04:10:29;;;;;;;0.63;0.63;;;;;;;;;;5031030;28;20188;-63
2022/01/14 04:13:03;;;;;;;0.60;0.60;;;;;;;;;;5030851;28;20204;-63
2022/01/14 04:15:42;;;;;;;0.60;0.60;;;;;;;;;;5030737;28;20169;-63
2022/01/14 04:18:08;;;;;;;0.70;0.70;;;;;;;;;;5030689;28;20173;-63
2022/01/14 04:20:35;;;;;;;0.60;0.60;;;;;;;;;;5030936;28;20184;-63
2022/01/14 04:23:01;;;;;;;0.60;0.60;;;;;;;;;;5012382;28;20216;-63
2022/01/14 04:25:27;;;;;;;0.60;0.60;;;;;;;;;;5030755;28;20188;-62
2022/01/14 04:27:53;;;;;;;0.60;0.60;;;;;;;;;;5030786;28;20219;-64
2022/01/14 04:30:19;;;;;;;0.50;0.50;;;;;;;;;;5013048;28;20571;-63
2022/01/14 04:32:45;;;;;;;0.60;0.60;;;;;;;;;;5030393;28;20478;-63
2022/01/14 04:35:12;;;;;;;0.60;0.60;;;;;;;;;;5013144;28;20181;-63
2022/01/14 04:37:38;;;;;;;0.60;0.60;;;;;;;;;;5030576;28;20228;-62
2022/01/14 04:40:04;;;;;;;0.60;0.60;;;;;;;;;;5030792;28;20660;-62
2022/01/14 04:42:30;;;;;;;0.70;0.70;;;;;;;;;;5030317;28;20219;-63
2022/01/14 04:44:57;;;;;;;0.70;0.70;;;;;;;;;;5030802;28;20180;-63
2022/01/14 04:50:19;;;;;;;0.70;0.70;;;;;;;;;;5017560;28;20223;-62
2022/01/14 04:52:47;;;;;;;0.60;0.60;;;;;;;;;;5030250;28;20208;-63
2022/01/14 04:55:13;;;;;;;0.50;0.50;;;;;;;;;;5030226;28;20196;-63
2022/01/14 04:57:40;;;;;;;0.60;0.60;;;;;;;;;;5030463;28;20209;-60
2022/01/14 05:00:07;;;;;;;0.52;0.52;;;;;;;;;;5030299;28;20188;-63
2022/01/14 05:02:34;;;;;;;0.60;0.60;;;;;;;;;;5030100;28;20688;-63
2022/01/14 05:05:00;;;;;;;0.60;0.60;;;;;;;;;;5030692;28;20181;-63
2022/01/14 05:07:27;;;;;;;0.63;0.63;;;;;;;;;;5033940;28;20256;-62
2022/01/14 05:12:32;;;;;;;0.60;0.60;;;;;;;;;;5033666;28;20196;-62
2022/01/14 05:14:58;;;;;;;0.60;0.60;;;;;;;;;;5033632;28;20560;-63
2022/01/14 05:17:24;;;;;;;0.57;0.57;;;;;;;;;;5033847;28;20173;-63
2022/01/14 05:19:50;;;;;;;0.60;0.60;;;;;;;;;;5033327;28;20447;-63
2022/01/14 05:22:17;;;;;;;0.60;0.60;;;;;;;;;;5033389;28;20474;-63
2022/01/14 05:24:43;;;;;;;0.60;0.60;;;;;;;;;;5033376;28;20173;-63
2022/01/14 05:27:09;;;;;;;0.70;0.70;;;;;;;;;;5012929;28;20556;-62
2022/01/14 05:29:35;;;;;;;0.70;0.70;;;;;;;;;;5033772;28;20184;-63
2022/01/14 05:32:03;;;;;;;0.60;0.60;;;;;;;;;;5024056;28;20220;-63
2022/01/14 05:34:30;;;;;;;0.70;0.70;;;;;;;;;;5013772;28;20680;-61
2022/01/14 05:36:56;;;;;;;0.50;0.50;;;;;;;;;;5016835;28;20649;-62
2022/01/14 05:39:23;;;;;;;0.68;0.68;;;;;;;;;;5024100;28;20181;-60
2022/01/14 05:41:49;;;;;;;0.60;0.60;;;;;;;;;;5033555;28;20623;-60
2022/01/14 05:44:15;;;;;;;0.60;0.60;;;;;;;;;;5032984;28;20188;-61
2022/01/14 05:46:41;;;;;;;0.60;0.60;;;;;;;;;;5024593;28;20657;-60
2022/01/14 05:49:07;;;;;;;0.60;0.60;;;;;;;;;;4995903;28;20177;-63
2022/01/14 05:51:33;;;;;;;0.60;0.60;;;;;;;;;;5013861;28;20458;-63
2022/01/14 05:53:59;;;;;;;0.60;0.60;;;;;;;;;;5013344;28;20447;-62
2022/01/14 05:56:25;;;;;;;0.60;0.60;;;;;;;;;;5013592;28;20173;-61
2022/01/14 05:58:51;;;;;;;0.60;0.60;;;;;;;;;;5013598;28;20178;-63
2022/01/14 06:01:17;;;;;;;0.70;0.70;;;;;;;;;;5013578;28;20493;-63
2022/01/14 06:03:43;;;;;;;0.50;0.50;;;;;;;;;;5013141;28;20816;-60
2022/01/14 06:06:09;;;;;;;0.60;0.60;;;;;;;;;;5013485;28;20416;-61
2022/01/14 06:08:35;;;;;;;0.60;0.60;;;;;;;;;;5013109;28;20428;-62
2022/01/14 06:11:01;;;;;;;0.60;0.60;;;;;;;;;;5013314;28;20888;-62
2022/01/14 06:13:27;;;;;;;0.50;0.50;;;;;;;;;;5013120;28;20193;-62
2022/01/14 06:15:53;;;;;;;0.70;0.70;;;;;;;;;;5013257;28;20499;-61
2022/01/14 06:18:19;;;;;;;0.70;0.70;;;;;;;;;;5012941;28;20420;-62
2022/01/14 06:20:46;;;;;;;0.60;0.60;;;;;;;;;;4995522;28;20417;-63
2022/01/14 06:23:12;;;;;;;0.70;0.70;;;;;;;;;;5023874;23;20492;-66
2022/01/14 06:25:38;;;;;;;0.60;0.60;;;;;;;;;;4993169;28;20182;-66
2022/01/14 06:28:04;;;;;;;0.60;0.60;;;;;;;;;;4993426;28;20178;-66
2022/01/14 06:30:30;;;;;;;0.60;0.60;;;;;;;;;;4993252;28;20494;-66
2022/01/14 06:32:56;;;;;;;0.60;0.60;;;;;;;;;;4993127;28;20223;-66
2022/01/14 06:35:23;;;;;;;0.63;0.63;;;;;;;;;;4993184;28;20408;-66
2022/01/14 06:37:49;;;;;;;0.60;0.60;;;;;;;;;;4991777;28;20229;-66
2022/01/14 06:40:15;;;;;;;0.70;0.70;;;;;;;;;;4993143;28;20174;-66
2022/01/14 06:42:41;;;;;;;0.70;0.70;;;;;;;;;;4992720;28;20637;-66
2022/01/14 06:45:08;;;;;;;0.68;0.68;;;;;;;;;;4992655;28;20614;-66
2022/01/14 06:47:33;;;;;;;0.70;0.70;;;;;;;;;;4992784;28;20214;-66
2022/01/14 06:49:59;;;;;;;0.60;0.60;;;;;;;;;;4992514;28;20210;-66
2022/01/14 06:52:26;;;;;;;0.65;0.65;;;;;;;;;;4987708;28;20446;-66
2022/01/14 06:54:52;;;;;;;0.60;0.60;;;;;;;;;;4992457;28;20206;-66
2022/01/14 06:57:18;;;;;;;0.70;0.70;;;;;;;;;;4991836;28;20225;-66
2022/01/14 06:59:44;;;;;;;0.68;0.68;;;;;;;;;;4992020;28;20434;-66
2022/01/14 07:02:10;;;;;;;0.60;0.60;;;;;;;;;;4990921;28;20751;-66
2022/01/14 07:04:36;;;;;;;0.60;0.60;;;;;;;;;;4992405;28;20501;-66
2022/01/14 07:07:03;;;;;;;0.70;0.70;;;;;;;;;;4991470;28;20182;-66
2022/01/14 07:09:30;;;;;;;0.70;0.70;;;;;;;;;;4991722;28;20240;-66
2022/01/14 07:11:58;;;;;;;0.70;0.70;;;;;;;;;;4992389;28;20201;-66
2022/01/14 07:14:25;;;;;;;0.60;0.60;;;;;;;;;;4988961;28;20543;-66
2022/01/14 07:16:51;;;;;;;0.70;0.70;;;;;;;;;;4992478;28;20181;-66
2022/01/14 07:19:19;;;;;;;0.70;0.70;;;;;;;;;;4992063;28;20285;-66
2022/01/14 07:21:45;;;;;;;0.60;0.60;;;;;;;;;;4990782;28;20206;-66
2022/01/14 07:24:13;;;;;;;0.60;0.60;;;;;;;;;;4992249;28;20236;-66
2022/01/14 07:26:39;;;;;;;0.60;0.60;;;;;;;;;;4991968;28;20410;-66
2022/01/14 07:29:06;;;;;;;0.60;0.60;;;;;;;;;;4991891;28;20171;-66
2022/01/14 07:31:32;;;;;;;0.70;0.70;;;;;;;;;;4991607;28;20516;-66
2022/01/14 07:33:57;;;;;;;0.60;0.60;;;;;;;;;;4991832;28;20290;-66
2022/01/14 07:36:24;;;;;;;0.70;0.70;;;;;;;;;;4990688;28;20182;-66
2022/01/14 07:38:50;;;;;;;0.70;0.70;;;;;;;;;;4991221;28;20417;-66
2022/01/14 07:41:16;;;;;;;0.60;0.60;;;;;;;;;;4991689;28;20182;-64
2022/01/14 07:43:46;;;;;;;0.70;0.70;;;;;;;;;;4991646;28;20284;-64
2022/01/14 07:46:12;;;;;;;0.65;0.65;;;;;;;;;;4991453;28;20562;-64
2022/01/14 07:48:38;;;;;;;0.50;0.50;;;;;;;;;;4990637;28;20181;-65
2022/01/14 07:51:04;;;;;;;0.60;0.60;;;;;;;;;;4991950;28;20921;-64
2022/01/14 07:53:30;;;;;;;0.60;0.60;;;;;;;;;;4991562;28;20421;-64
2022/01/14 07:55:56;;;;;;;0.60;0.60;;;;;;;;;;4991842;28;20409;-65
2022/01/14 07:58:23;;;;;;;0.60;0.60;;;;;;;;;;4991809;28;20413;-65
2022/01/14 08:00:48;;;;;;;0.60;0.60;;;;;;;;;;4991738;28;20409;-65
2022/01/14 08:03:14;;;;;;;0.50;0.50;;;;;;;;;;4991585;28;20301;-65
2022/01/14 08:05:40;;;;;;;0.60;0.60;;;;;;;;;;4990445;28;20517;-65
2022/01/14 08:08:07;;;;;;;0.60;0.60;;;;;;;;;;4989846;28;20897;-65
2022/01/14 08:10:34;;;;;;;0.60;0.60;;;;;;;;;;4991171;28;20182;-65
2022/01/14 08:13:00;;;;;;;0.60;0.60;;;;;;;;;;4991434;28;20226;-65
2022/01/14 08:15:26;;;;;;;0.60;0.60;;;;;;;;;;4990539;28;20257;-65
2022/01/14 08:17:54;;;;;;;0.50;0.50;;;;;;;;;;4991874;28;20186;-65
2022/01/14 08:20:20;;;;;;;0.60;0.60;;;;;;;;;;4990854;28;20277;-65
2022/01/14 08:22:46;;;;;;;0.60;0.60;;;;;;;;;;4991408;28;20265;-65
2022/01/14 08:25:12;;;;;;;0.70;0.70;;;;;;;;;;4991921;28;20190;-65
2022/01/14 08:27:38;;;;;;;0.50;0.50;;;;;;;;;;4992142;28;20915;-65
2022/01/14 08:30:04;;;;;;;0.70;0.70;;;;;;;;;;4991925;28;20253;-65
2022/01/14 08:32:30;;;;;;;0.70;0.70;;;;;;;;;;4989539;28;20448;-65
2022/01/14 08:34:56;;;;;;;0.60;0.60;;;;;;;;;;4991727;28;20183;-65
2022/01/14 08:37:22;;;;;;;0.60;0.60;;;;;;;;;;4992166;28;20493;-65
2022/01/14 08:39:48;;;;;;;0.70;0.70;;;;;;;;;;4991806;28;20476;-65
2022/01/14 08:42:14;;;;;;;0.50;0.50;;;;;;;;;;4994544;28;20560;-65
2022/01/14 08:44:41;;;;;;;0.70;0.70;;;;;;;;;;4994794;28;20909;-65
2022/01/14 08:47:09;;;;;;;0.60;0.60;;;;;;;;;;4995445;28;20635;-65
2022/01/14 08:49:35;;;;;;;0.60;0.60;;;;;;;;;;4995085;28;20221;-65
2022/01/14 08:52:01;;;;;;;0.60;0.60;;;;;;;;;;4995068;28;20182;-65
2022/01/14 08:54:27;;;;;;;0.60;0.60;;;;;;;;;;4995207;28;20266;-65
2022/01/14 08:56:53;;;;;;;0.60;0.60;;;;;;;;;;4995111;28;20410;-65
2022/01/14 08:59:19;;;;;;;0.60;0.60;;;;;;;;;;4993757;28;20417;-65
2022/01/14 09:01:45;;;;;;;0.60;0.60;;;;;;;;;;4995074;28;20198;-65
2022/01/14 09:04:11;;;;;;;0.60;0.60;;;;;;;;;;4994989;28;20747;-65
2022/01/14 09:06:37;;;;;;;0.60;0.60;;;;;;;;;;4993684;28;20417;-65
2022/01/14 09:09:04;;;;;;;0.60;0.60;;;;;;;;;;4993674;28;20182;-65
2022/01/14 09:11:30;;;;;;;0.70;0.70;;;;;;;;;;4994963;28;20947;-65
2022/01/14 09:13:56;;;;;;;0.60;0.60;;;;;;;;;;4994493;28;20194;-65
2022/01/14 09:16:23;;;;;;;0.60;0.60;;;;;;;;;;4994927;28;20497;-65
2022/01/14 09:18:49;;;;;;;0.60;0.60;;;;;;;;;;4991953;28;20410;-65
2022/01/14 09:21:15;;;;;;;0.60;0.60;;;;;;;;;;4994534;28;20186;-65
2022/01/14 09:23:43;;;;;;;0.50;0.50;;;;;;;;;;4992580;28;20597;-65
2022/01/14 09:26:09;;;;;;;0.60;0.60;;;;;;;;;;4994451;28;20198;-65
2022/01/14 09:28:35;;;;;;;0.60;0.60;;;;;;;;;;4994546;28;20178;-65
2022/01/14 09:31:01;;;;;;;0.60;0.60;;;;;;;;;;4994677;28;20476;-65
2022/01/14 09:33:27;;;;;;;0.70;0.70;;;;;;;;;;4994095;28;20441;-65
2022/01/14 09:35:53;;;;;;;0.60;0.60;;;;;;;;;;4993874;28;20414;-65
2022/01/14 09:38:21;;;;;;;0.60;0.60;;;;;;;;;;4992067;28;20546;-65
2022/01/14 09:40:49;;;;;;;0.60;0.60;;;;;;;;;;4994575;28;20182;-65
2022/01/14 09:43:15;;;;;;;0.70;0.70;;;;;;;;;;4993970;28;20623;-65
2022/01/14 09:45:41;;;;;;;0.60;0.60;;;;;;;;;;4994105;28;20201;-65
2022/01/14 09:48:07;;;;;;;0.60;0.60;;;;;;;;;;4993984;28;20258;-65
2022/01/14 09:50:33;;;;;;;0.50;0.50;;;;;;;;;;4994080;28;20183;-65
2022/01/14 09:52:59;;;;;;;0.50;0.50;;;;;;;;;;4993382;28;20669;-65
2022/01/14 09:55:25;;;;;;;0.60;0.60;;;;;;;;;;4994100;28;20189;-65
2022/01/14 09:57:54;;;;;;;0.60;0.60;;;;;;;;;;4993678;28;20261;-66
2022/01/14 10:00:20;;;;;;;0.60;0.60;;;;;;;;;;4994105;28;20587;-65
2022/01/14 10:02:46;;;;;;;0.70;0.70;;;;;;;;;;4993493;28;20927;-66
2022/01/14 10:05:35;;;;;;;0.70;0.70;;;;;;;;;;4994155;28;20535;-65
2022/01/14 10:08:08;;;;;;;0.60;0.60;;;;;;;;;;4993609;28;20190;-65
2022/01/14 10:10:37;;;;;;;0.70;0.70;;;;;;;;;;4993879;28;20171;-65
2022/01/14 10:13:16;;;;;;;0.60;0.60;;;;;;;;;;4993544;28;20205;-65
2022/01/14 10:15:44;;;;;;;0.60;0.60;;;;;;;;;;4993545;28;20174;-65
2022/01/14 10:18:10;;;;;;;0.60;0.60;;;;;;;;;;4993841;28;20180;-65
2022/01/14 10:20:38;;;;;;;0.60;0.60;;;;;;;;;;4993420;28;20174;-66
2022/01/14 10:23:04;;;;;;;0.70;0.70;;;;;;;;;;4993405;28;20209;-66
2022/01/14 10:25:30;;;;;;;0.60;0.60;;;;;;;;;;4993711;28;20198;-65
2022/01/14 10:27:56;;;;;;;0.65;0.65;;;;;;;;;;4993269;28;20580;-65
2022/01/14 10:30:25;;;;;;;0.60;0.60;;;;;;;;;;4991952;28;20281;-65
2022/01/14 10:32:54;;;;;;;0.60;0.60;;;;;;;;;;4993163;28;20437;-65
2022/01/14 10:35:21;;;;;;;0.60;0.60;;;;;;;;;;4993556;28;20177;-65
2022/01/14 10:37:47;;;;;;;0.60;0.60;;;;;;;;;;4993522;28;20541;-66
2022/01/14 10:40:19;;;;;;;0.60;0.60;;;;;;;;;;4993240;28;20182;-65
2022/01/14 10:42:46;;;;;;;0.60;0.60;;;;;;;;;;4992507;28;20221;-65
2022/01/14 10:45:15;;;;;;;0.60;0.60;;;;;;;;;;4993252;28;20189;-66
2022/01/14 10:47:41;;;;;;;0.60;0.60;;;;;;;;;;4993422;28;20214;-66
2022/01/14 10:50:07;;;;;;;0.50;0.50;;;;;;;;;;4993200;28;20218;-66
2022/01/14 10:52:33;;;;;;;0.60;0.60;;;;;;;;;;4992353;28;20692;-66
2022/01/14 10:54:59;;;;;;;0.60;0.60;;;;;;;;;;4993404;28;20181;-66
2022/01/14 10:57:27;;;;;;;0.70;0.70;;;;;;;;;;4993046;28;20504;-66
2022/01/14 10:59:56;;;;;;;0.55;0.55;;;;;;;;;;4993041;28;20182;-66
2022/01/14 11:02:42;;;;;;;0.60;0.60;;;;;;;;;;4992506;28;20628;-67
2022/01/14 11:05:18;;;;;;;0.60;0.60;;;;;;;;;;4991933;28;20178;-66
2022/01/14 11:07:46;;;;;;;0.50;0.50;;;;;;;;;;4991496;28;20183;-66
2022/01/14 11:10:15;;;;;;;0.60;0.60;;;;;;;;;;4993298;28;20196;-67
2022/01/14 11:12:42;;;;;;;0.60;0.60;;;;;;;;;;4992676;28;20197;-66
2022/01/14 11:15:08;;;;;;;0.50;0.50;;;;;;;;;;4992218;28;20203;-67
2022/01/14 11:17:38;;;;;;;0.50;0.50;;;;;;;;;;4992826;28;20676;-66
2022/01/14 11:20:05;;;;;;;0.60;0.60;;;;;;;;;;4993032;28;20178;-66
2022/01/14 11:25:16;;;;;;;0.60;0.60;;;;;;;;;;4992973;28;20259;-66
2022/01/14 11:27:46;;;;;;;0.50;0.50;;;;;;;;;;4992338;28;20178;-66
2022/01/14 11:30:15;;;;;;;0.60;0.60;;;;;;;;;;4992488;28;20431;-66
2022/01/14 11:32:58;;;;;;;0.50;0.50;;;;;;;;;;4992451;28;20288;-67
2022/01/14 11:35:25;;;;;;;0.50;0.50;;;;;;;;;;4992655;28;20182;-66
2022/01/14 11:37:51;;;;;;;0.40;0.40;;;;;;;;;;4992029;28;20178;-67
2022/01/14 11:40:18;;;;;;;0.50;0.50;;;;;;;;;;4992481;28;20171;-67
2022/01/14 11:42:49;;;;;;;0.50;0.50;;;;;;;;;;4992267;28;20213;-67
2022/01/14 11:45:15;;;;;;;0.40;0.40;;;;;;;;;;4991382;28;20167;-67
2022/01/14 11:47:43;;;;;;;0.40;0.40;;;;;;;;;;4992672;28;20416;-65
2022/01/14 11:50:21;;;;;;;0.50;0.50;;;;;;;;;;4992134;28;20418;-65
2022/01/14 11:52:48;;;;;;;0.40;0.40;;;;;;;;;;4992026;28;20439;-65
2022/01/14 11:55:20;;;;;;;0.40;0.40;;;;;;;;;;4992496;28;20417;-65
2022/01/14 11:57:47;;;;;;;0.40;0.40;;;;;;;;;;4991526;28;20409;-65
2022/01/14 12:00:38;;;;;;;0.40;0.40;;;;;;;;;;4991007;28;20399;-65
2022/01/14 12:03:13;;;;;;;0.40;0.40;;;;;;;;;;4992512;28;20468;-65
2022/01/14 12:05:53;;;;;;;0.40;0.40;;;;;;;;;;4992264;28;20417;-64
2022/01/14 12:08:20;;;;;;;0.40;0.40;;;;;;;;;;4992569;28;20448;-65
2022/01/14 12:10:47;;;;;;;0.40;0.40;;;;;;;;;;4991644;28;20500;-64
2022/01/14 12:13:21;;;;;;;0.30;0.30;;;;;;;;;;4991838;28;20441;-66
2022/01/14 12:15:56;;;;;;;0.40;0.40;;;;;;;;;;4995146;28;20404;-67
2022/01/14 12:18:41;;;;;;;0.40;0.40;;;;;;;;;;4995851;28;20785;-66
2022/01/14 12:21:07;;;;;;;0.40;0.40;;;;;;;;;;4996057;28;20423;-66
2022/01/14 12:23:32;;;;;;;0.40;0.40;;;;;;;;;;5025211;22;20477;-64
2022/01/14 12:26:12;;;;;;;0.40;0.40;;;;;;;;;;5014581;28;20499;-64
2022/01/14 12:28:38;;;;;;;0.40;0.40;;;;;;;;;;5014000;28;20416;-64
2022/01/14 12:31:04;;;;;;;0.40;0.40;;;;;;;;;;5015839;28;20427;-64
2022/01/14 12:33:48;;;;;;;0.40;0.40;;;;;;;;;;5013305;28;20802;-64
2022/01/14 12:36:14;;;;;;;0.40;0.40;;;;;;;;;;5015118;28;20426;-64
2022/01/14 12:38:41;;;;;;;0.40;0.40;;;;;;;;;;5015250;28;20406;-64
2022/01/14 12:41:20;;;;;;;0.40;0.40;;;;;;;;;;5013554;28;20486;-64
2022/01/14 12:43:57;;;;;;;0.40;0.40;;;;;;;;;;5014146;28;20494;-64
2022/01/14 12:46:41;;;;;;;0.30;0.30;;;;;;;;;;5015104;28;20412;-64
2022/01/14 12:49:08;;;;;;;0.40;0.40;;;;;;;;;;5014987;28;20461;-64
2022/01/14 12:51:34;;;;;;;0.40;0.40;;;;;;;;;;5014837;28;20390;-64
2022/01/14 12:54:02;;;;;;;0.40;0.40;;;;;;;;;;5014689;28;20792;-64
2022/01/14 12:56:30;;;;;;;0.40;0.40;;;;;;;;;;5014793;28;20464;-64
2022/01/14 12:59:16;;;;;;;0.40;0.40;;;;;;;;;;5014719;28;20754;-64
2022/01/14 13:01:44;;;;;;;0.50;0.50;;;;;;;;;;5013227;28;20431;-64
2022/01/14 13:04:11;;;;;;;0.40;0.40;;;;;;;;;;5014220;28;20439;-64
2022/01/14 13:06:43;;;;;;;0.40;0.40;;;;;;;;;;5014723;28;20400;-64
2022/01/14 13:09:10;;;;;;;0.40;0.40;;;;;;;;;;5014486;28;20169;-64
2022/01/14 13:11:49;;;;;;;0.40;0.40;;;;;;;;;;5013288;28;20181;-64
2022/01/14 13:14:19;;;;;;;0.40;0.40;;;;;;;;;;5011474;28;20719;-64
2022/01/14 13:16:47;;;;;;;0.40;0.40;;;;;;;;;;5013081;28;20193;-64
2022/01/14 13:19:33;;;;;;;0.50;0.50;;;;;;;;;;5014060;28;20252;-64
2022/01/14 13:22:00;;;;;;;0.40;0.40;;;;;;;;;;5014208;28;20257;-64
2022/01/14 13:24:30;;;;;;;0.50;0.50;;;;;;;;;;5014117;28;20228;-64
2022/01/14 13:27:04;;;;;;;0.40;0.40;;;;;;;;;;5013511;28;20174;-64
2022/01/14 13:29:38;;;;;;;0.50;0.50;;;;;;;;;;5013736;28;20178;-64
2022/01/14 13:32:04;;;;;;;0.50;0.50;;;;;;;;;;5014436;28;20210;-63
2022/01/14 13:34:30;;;;;;;0.40;0.40;;;;;;;;;;5014183;28;20224;-64
2022/01/14 13:36:57;;;;;;;0.40;0.40;;;;;;;;;;5014380;28;20184;-64
2022/01/14 13:39:23;;;;;;;0.40;0.40;;;;;;;;;;5012831;28;20270;-64
2022/01/14 13:41:49;;;;;;;0.50;0.50;;;;;;;;;;5013368;28;20170;-62
2022/01/14 13:44:19;;;;;;;0.50;0.50;;;;;;;;;;5013767;28;20189;-64
2022/01/14 13:46:46;;;;;;;0.50;0.50;;;;;;;;;;5013963;28;20173;-64
2022/01/14 13:49:18;;;;;;;0.40;0.40;;;;;;;;;;5013967;28;20169;-64
2022/01/14 13:51:45;;;;;;;0.50;0.50;;;;;;;;;;5014020;28;20557;-64
2022/01/14 13:54:11;;;;;;;0.50;0.50;;;;;;;;;;5013566;28;20217;-65
2022/01/14 13:56:37;;;;;;;0.50;0.50;;;;;;;;;;5013978;28;20169;-64
2022/01/14 13:59:04;;;;;;;0.50;0.50;;;;;;;;;;5013676;28;20195;-64
2022/01/14 14:01:31;;;;;;;0.50;0.50;;;;;;;;;;5013732;28;20561;-64
2022/01/14 14:04:13;;;;;;;0.50;0.50;;;;;;;;;;5013385;28;20224;-64
2022/01/14 14:06:43;;;;;;;0.50;0.50;;;;;;;;;;5013649;28;20177;-64
2022/01/14 14:09:17;;;;;;;0.50;0.50;;;;;;;;;;5013614;28;20165;-64
2022/01/14 14:17:08;;;;;;;0.50;0.50;;;;;;;;;;5013026;28;20200;-64
2022/01/14 14:19:45;;;;;;;0.50;0.50;;;;;;;;;;5013648;28;20169;-64
2022/01/14 14:22:25;;;;;;;0.50;0.50;;;;;;;;;;5013313;28;20196;-64
2022/01/14 14:24:58;;;;;;;0.50;0.50;;;;;;;;;;5013283;28;20210;-64
2022/01/14 14:27:24;;;;;;;0.50;0.50;;;;;;;;;;5012862;28;20683;-64
2022/01/14 14:29:52;;;;;;;0.50;0.50;;;;;;;;;;5012660;28;20772;-64
2022/01/14 14:32:25;;;;;;;0.60;0.60;;;;;;;;;;5012029;28;20177;-64
2022/01/14 14:34:51;;;;;;;0.50;0.50;;;;;;;;;;5013136;28;20201;-63
2022/01/14 14:37:17;;;;;;;0.60;0.60;;;;;;;;;;5013005;28;20181;-64
2022/01/14 14:39:43;;;;;;;0.50;0.50;;;;;;;;;;5012431;28;20264;-63
2022/01/14 14:42:11;;;;;;;0.50;0.50;;;;;;;;;;5010964;28;20455;-64
2022/01/14 14:44:37;;;;;;;0.47;0.47;;;;;;;;;;5011351;28;20557;-63
2022/01/14 14:47:04;;;;;;;0.50;0.50;;;;;;;;;;5012835;28;20286;-63
2022/01/14 14:49:30;;;;;;;0.50;0.50;;;;;;;;;;5012490;28;20195;-64
2022/01/14 14:51:56;;;;;;;0.60;0.60;;;;;;;;;;5010867;28;20185;-64
2022/01/14 14:54:24;;;;;;;0.50;0.50;;;;;;;;;;5010523;28;20717;-64
2022/01/14 14:56:50;;;;;;;0.50;0.50;;;;;;;;;;5011460;28;20250;-63
2022/01/14 14:59:16;;;;;;;0.50;0.50;;;;;;;;;;5012485;28;20501;-64
2022/01/14 15:01:43;;;;;;;0.60;0.60;;;;;;;;;;5012633;28;20180;-63
2022/01/14 15:04:09;;;;;;;0.60;0.60;;;;;;;;;;5012277;28;20204;-64
2022/01/14 15:06:36;;;;;;;0.50;0.50;;;;;;;;;;5011223;28;20191;-63
2022/01/14 15:09:02;;;;;;;0.52;0.52;;;;;;;;;;5010961;28;20575;-63
2022/01/14 15:11:27;;;;;;;0.50;0.50;;;;;;;;;;5011232;28;20546;-63
2022/01/14 15:13:53;;;;;;;0.50;0.50;;;;;;;;;;5010852;28;20295;-63
2022/01/14 15:18:45;;;;;;;0.50;0.50;;;;;;;;;;5012541;28;20998;-63
2022/01/14 15:21:11;;;;;;;0.50;0.50;;;;;;;;;;5015345;28;20420;-63